AIQ728 VTBD-VYMD
Flight info
| Callsign | AIQ728 |
|---|---|
| Flight time | 1h 32m |
| Altitude | 36000 |
| Route | NUNLI3C NUNLI L507 ARATO DCT DOGIP DOGIP1E |
| Aircraft | A320/M-SDE3FGHIRWY/LB1 |
Departure
| Time | 2026-04-25 15:11 |
|---|---|
| Airport | Don Mueang International Airport (VTBD) |
Arrival
| Time | 2026-04-25 16:44 |
|---|---|
| Airport | Mandalay International Airport (VYMD) |
| Time | Latitude | Longitude | Altitude | Speed | Heading |
|---|---|---|---|---|---|
| 2026-04-25 14:44 | 13.92013 | 100.60455 | 17 ft | 0 kts | 28° |
| 2026-04-25 14:51 | 13.92008 | 100.60452 | 17 ft | 2 kts | 29° |
| 2026-04-25 14:51 | 13.91994 | 100.60444 | 18 ft | 2 kts | 28° |
| 2026-04-25 14:51 | 13.91979 | 100.60436 | 17 ft | 2 kts | 29° |
| 2026-04-25 14:51 | 13.91965 | 100.60428 | 17 ft | 2 kts | 29° |
| 2026-04-25 14:52 | 13.91950 | 100.60420 | 18 ft | 2 kts | 356° |
| 2026-04-25 14:52 | 13.91936 | 100.60427 | 20 ft | 2 kts | 303° |
| 2026-04-25 14:52 | 13.91928 | 100.60442 | 21 ft | 2 kts | 299° |
| 2026-04-25 14:52 | 13.91922 | 100.60451 | 19 ft | 2 kts | 299° |
| 2026-04-25 14:53 | 13.91912 | 100.60471 | 17 ft | 2 kts | 299° |
| 2026-04-25 14:53 | 13.91904 | 100.60486 | 17 ft | 2 kts | 298° |
| 2026-04-25 14:53 | 13.91896 | 100.60501 | 19 ft | 2 kts | 298° |
| 2026-04-25 14:53 | 13.91888 | 100.60515 | 18 ft | 2 kts | 303° |
| 2026-04-25 14:54 | 13.91876 | 100.60526 | 18 ft | 2 kts | 348° |
| 2026-04-25 14:54 | 13.91860 | 100.60528 | 19 ft | 2 kts | 10° |
| 2026-04-25 14:54 | 13.91844 | 100.60523 | 18 ft | 2 kts | 30° |
| 2026-04-25 14:54 | 13.91830 | 100.60515 | 20 ft | 2 kts | 28° |
| 2026-04-25 14:55 | 13.91817 | 100.60508 | 17 ft | 1 kts | 28° |
| 2026-04-25 14:55 | 13.91815 | 100.60507 | 17 ft | 0 kts | 28° |
| 2026-04-25 15:04 | 13.91816 | 100.60507 | 17 ft | 2 kts | 28° |
| 2026-04-25 15:05 | 13.91852 | 100.60527 | 17 ft | 10 kts | 28° |
| 2026-04-25 15:05 | 13.91933 | 100.60573 | 17 ft | 17 kts | 28° |
| 2026-04-25 15:05 | 13.92054 | 100.60641 | 18 ft | 21 kts | 28° |
| 2026-04-25 15:06 | 13.92319 | 100.60790 | 18 ft | 22 kts | 28° |
| 2026-04-25 15:06 | 13.92460 | 100.60869 | 18 ft | 24 kts | 28° |
| 2026-04-25 15:06 | 13.92604 | 100.60949 | 17 ft | 20 kts | 28° |
| 2026-04-25 15:06 | 13.92685 | 100.61020 | 17 ft | 13 kts | 95° |
| 2026-04-25 15:07 | 13.92656 | 100.61081 | 19 ft | 3 kts | 118° |
| 2026-04-25 15:07 | 13.92655 | 100.61083 | 19 ft | 0 kts | 118° |
| 2026-04-25 15:08 | 13.92649 | 100.61094 | 18 ft | 5 kts | 118° |
| 2026-04-25 15:08 | 13.92618 | 100.61152 | 16 ft | 13 kts | 119° |
| 2026-04-25 15:09 | 13.92561 | 100.61258 | 16 ft | 19 kts | 119° |
| 2026-04-25 15:09 | 13.92496 | 100.61380 | 18 ft | 20 kts | 119° |
| 2026-04-25 15:09 | 13.92372 | 100.61509 | 14 ft | 7 kts | 210° |
| 2026-04-25 15:10 | 13.92369 | 100.61507 | 14 ft | 0 kts | 209° |
| 2026-04-25 15:10 | 13.92170 | 100.61395 | 16 ft | 68 kts | 208° |
| 2026-04-25 15:11 | 13.91570 | 100.61060 | 19 ft | 126 kts | 208° |
| 2026-04-25 15:11 | 13.90654 | 100.60545 | 33 ft | 170 kts | 208° |
| 2026-04-25 15:11 | 13.89613 | 100.59981 | 692 ft | 167 kts | 207° |
| 2026-04-25 15:12 | 13.87601 | 100.58784 | 1875 ft | 169 kts | 228° |
| 2026-04-25 15:12 | 13.87072 | 100.57667 | 2143 ft | 190 kts | 263° |
| 2026-04-25 15:12 | 13.87313 | 100.56262 | 2382 ft | 214 kts | 294° |
| 2026-04-25 15:12 | 13.87526 | 100.55779 | 2479 ft | 222 kts | 294° |
| 2026-04-25 15:13 | 13.88670 | 100.53149 | 3044 ft | 261 kts | 294° |
| 2026-04-25 15:13 | 13.90172 | 100.49632 | 4424 ft | 276 kts | 293° |
| 2026-04-25 15:13 | 13.91065 | 100.47867 | 5158 ft | 282 kts | 307° |
| 2026-04-25 15:14 | 13.92369 | 100.46325 | 5928 ft | 286 kts | 311° |
| 2026-04-25 15:14 | 13.93709 | 100.44793 | 6682 ft | 290 kts | 311° |
| 2026-04-25 15:14 | 13.95063 | 100.43249 | 7428 ft | 292 kts | 311° |
| 2026-04-25 15:14 | 13.96430 | 100.41685 | 8188 ft | 295 kts | 312° |
| 2026-04-25 15:15 | 13.97805 | 100.40109 | 8964 ft | 297 kts | 312° |
| 2026-04-25 15:15 | 13.99192 | 100.38518 | 9731 ft | 299 kts | 312° |
| 2026-04-25 15:15 | 14.00595 | 100.36910 | 10319 ft | 308 kts | 312° |
| 2026-04-25 15:15 | 14.02061 | 100.35230 | 10482 ft | 330 kts | 312° |
| 2026-04-25 15:16 | 14.03648 | 100.33413 | 10737 ft | 348 kts | 312° |
| 2026-04-25 15:16 | 14.05283 | 100.31535 | 11276 ft | 354 kts | 312° |
| 2026-04-25 15:16 | 14.08604 | 100.27709 | 12523 ft | 361 kts | 312° |
| 2026-04-25 15:17 | 14.11981 | 100.23822 | 13759 ft | 366 kts | 312° |
| 2026-04-25 15:17 | 14.13664 | 100.21885 | 14285 ft | 369 kts | 312° |
| 2026-04-25 15:17 | 14.15383 | 100.19907 | 14822 ft | 371 kts | 312° |
| 2026-04-25 15:18 | 14.17111 | 100.17916 | 15361 ft | 374 kts | 312° |
| 2026-04-25 15:18 | 14.20600 | 100.13890 | 16397 ft | 379 kts | 312° |
| 2026-04-25 15:18 | 14.22368 | 100.11849 | 16901 ft | 382 kts | 312° |
| 2026-04-25 15:19 | 14.24145 | 100.09802 | 17402 ft | 385 kts | 312° |
| 2026-04-25 15:19 | 14.24749 | 100.09105 | 17566 ft | 386 kts | 311° |
| 2026-04-25 15:19 | 14.27740 | 100.05653 | 18356 ft | 390 kts | 311° |
| 2026-04-25 15:19 | 14.29554 | 100.03559 | 18771 ft | 393 kts | 311° |
| 2026-04-25 15:20 | 14.30767 | 100.02160 | 19051 ft | 394 kts | 311° |
| 2026-04-25 15:20 | 14.33204 | 99.99354 | 19597 ft | 398 kts | 311° |
| 2026-04-25 15:20 | 14.35057 | 99.97217 | 20005 ft | 400 kts | 311° |
| 2026-04-25 15:20 | 14.36917 | 99.95066 | 20407 ft | 402 kts | 311° |
| 2026-04-25 15:21 | 14.38783 | 99.92906 | 20838 ft | 404 kts | 311° |
| 2026-04-25 15:21 | 14.40659 | 99.90731 | 21247 ft | 406 kts | 311° |
| 2026-04-25 15:21 | 14.42518 | 99.88577 | 21636 ft | 408 kts | 311° |
| 2026-04-25 15:21 | 14.44418 | 99.86383 | 22021 ft | 411 kts | 311° |
| 2026-04-25 15:22 | 14.46335 | 99.84174 | 22402 ft | 413 kts | 311° |
| 2026-04-25 15:22 | 14.48255 | 99.81957 | 22781 ft | 415 kts | 311° |
| 2026-04-25 15:22 | 14.50186 | 99.79725 | 23153 ft | 418 kts | 311° |
| 2026-04-25 15:22 | 14.52102 | 99.77511 | 23531 ft | 419 kts | 311° |
| 2026-04-25 15:23 | 14.54048 | 99.75261 | 23849 ft | 421 kts | 311° |
| 2026-04-25 15:23 | 14.56007 | 99.72994 | 24166 ft | 423 kts | 311° |
| 2026-04-25 15:23 | 14.57971 | 99.70721 | 24487 ft | 425 kts | 311° |
| 2026-04-25 15:23 | 14.59938 | 99.68442 | 24827 ft | 426 kts | 311° |
| 2026-04-25 15:24 | 14.61910 | 99.66154 | 25149 ft | 427 kts | 311° |
| 2026-04-25 15:24 | 14.63887 | 99.63858 | 25473 ft | 428 kts | 311° |
| 2026-04-25 15:24 | 14.65873 | 99.61551 | 25781 ft | 429 kts | 311° |
| 2026-04-25 15:24 | 14.66518 | 99.60802 | 25902 ft | 430 kts | 311° |
| 2026-04-25 15:25 | 14.69830 | 99.56954 | 26406 ft | 432 kts | 311° |
| 2026-04-25 15:25 | 14.71832 | 99.54630 | 26709 ft | 433 kts | 311° |
| 2026-04-25 15:25 | 14.73837 | 99.52302 | 27019 ft | 434 kts | 311° |
| 2026-04-25 15:25 | 14.75848 | 99.49967 | 27347 ft | 435 kts | 311° |
| 2026-04-25 15:26 | 14.77866 | 99.47621 | 27674 ft | 436 kts | 311° |
| 2026-04-25 15:26 | 14.79880 | 99.45279 | 27977 ft | 437 kts | 311° |
| 2026-04-25 15:26 | 14.81906 | 99.42924 | 28267 ft | 438 kts | 311° |
| 2026-04-25 15:26 | 14.83908 | 99.40596 | 28532 ft | 439 kts | 311° |
| 2026-04-25 15:27 | 14.85940 | 99.38227 | 28818 ft | 441 kts | 311° |
| 2026-04-25 15:27 | 14.87274 | 99.36633 | 28994 ft | 441 kts | 310° |
| 2026-04-25 15:27 | 14.91838 | 99.30863 | 29581 ft | 444 kts | 308° |
| 2026-04-25 15:28 | 14.93116 | 99.29203 | 29750 ft | 445 kts | 308° |
| 2026-04-25 15:28 | 14.95047 | 99.26698 | 30005 ft | 446 kts | 309° |
| 2026-04-25 15:28 | 14.96997 | 99.24185 | 30221 ft | 447 kts | 309° |
| 2026-04-25 15:28 | 14.98962 | 99.21678 | 30455 ft | 449 kts | 309° |
| 2026-04-25 15:29 | 15.00913 | 99.19205 | 30672 ft | 449 kts | 309° |
| 2026-04-25 15:29 | 15.02893 | 99.16706 | 30984 ft | 447 kts | 309° |
| 2026-04-25 15:29 | 15.04859 | 99.14222 | 31300 ft | 446 kts | 309° |
| 2026-04-25 15:29 | 15.06821 | 99.11736 | 31605 ft | 444 kts | 309° |
| 2026-04-25 15:30 | 15.08115 | 99.10092 | 31825 ft | 443 kts | 309° |
| 2026-04-25 15:30 | 15.10711 | 99.06788 | 32286 ft | 440 kts | 309° |
| 2026-04-25 15:30 | 15.12637 | 99.04333 | 32648 ft | 438 kts | 309° |
| 2026-04-25 15:30 | 15.14531 | 99.01920 | 32974 ft | 436 kts | 310° |
| 2026-04-25 15:31 | 15.16439 | 98.99490 | 33305 ft | 434 kts | 310° |
| 2026-04-25 15:31 | 15.18346 | 98.97063 | 33610 ft | 433 kts | 310° |
| 2026-04-25 15:31 | 15.20248 | 98.94642 | 33921 ft | 432 kts | 310° |
| 2026-04-25 15:31 | 15.22140 | 98.92237 | 34189 ft | 431 kts | 310° |
| 2026-04-25 15:32 | 15.24032 | 98.89829 | 34441 ft | 430 kts | 310° |
| 2026-04-25 15:32 | 15.25920 | 98.87423 | 34684 ft | 430 kts | 309° |
| 2026-04-25 15:32 | 15.27783 | 98.85050 | 34906 ft | 429 kts | 309° |
| 2026-04-25 15:33 | 15.31557 | 98.80239 | 35324 ft | 429 kts | 309° |
| 2026-04-25 15:33 | 15.33442 | 98.77833 | 35529 ft | 430 kts | 309° |
| 2026-04-25 15:33 | 15.35331 | 98.75422 | 35727 ft | 430 kts | 309° |
| 2026-04-25 15:33 | 15.37215 | 98.73017 | 35921 ft | 430 kts | 309° |
| 2026-04-25 15:34 | 15.40960 | 98.68221 | 36008 ft | 431 kts | 309° |
| 2026-04-25 15:34 | 15.44118 | 98.64173 | 35997 ft | 431 kts | 309° |
| 2026-04-25 15:35 | 15.50885 | 98.56635 | 35995 ft | 429 kts | 319° |
| 2026-04-25 15:36 | 15.57647 | 98.50612 | 35994 ft | 429 kts | 319° |
| 2026-04-25 15:36 | 15.62169 | 98.46571 | 35975 ft | 429 kts | 319° |
| 2026-04-25 15:37 | 15.66699 | 98.42523 | 35979 ft | 429 kts | 319° |
| 2026-04-25 15:37 | 15.71197 | 98.38509 | 35981 ft | 429 kts | 319° |
| 2026-04-25 15:38 | 15.75727 | 98.34466 | 35981 ft | 429 kts | 319° |
| 2026-04-25 15:38 | 15.80256 | 98.30420 | 35960 ft | 429 kts | 319° |
| 2026-04-25 15:39 | 15.84782 | 98.26373 | 35961 ft | 429 kts | 318° |
| 2026-04-25 15:39 | 15.89303 | 98.22325 | 35968 ft | 428 kts | 318° |
| 2026-04-25 15:40 | 15.93057 | 98.18954 | 35957 ft | 428 kts | 318° |
| 2026-04-25 15:40 | 15.98300 | 98.14252 | 35956 ft | 427 kts | 318° |
| 2026-04-25 15:41 | 16.02806 | 98.10213 | 35956 ft | 427 kts | 318° |
| 2026-04-25 15:41 | 16.07283 | 98.06196 | 35956 ft | 427 kts | 318° |
| 2026-04-25 15:42 | 16.11794 | 98.02145 | 35945 ft | 427 kts | 318° |
| 2026-04-25 15:42 | 16.16301 | 97.98094 | 35948 ft | 428 kts | 318° |
| 2026-04-25 15:43 | 16.20803 | 97.94046 | 35961 ft | 428 kts | 318° |
| 2026-04-25 15:43 | 16.25270 | 97.90034 | 35967 ft | 426 kts | 318° |
| 2026-04-25 15:44 | 16.29754 | 97.86006 | 35963 ft | 425 kts | 318° |
| 2026-04-25 15:44 | 16.34220 | 97.81975 | 35961 ft | 424 kts | 318° |
| 2026-04-25 15:45 | 16.39275 | 97.78804 | 35959 ft | 428 kts | 337° |
| 2026-04-25 15:45 | 16.43992 | 97.77190 | 35957 ft | 429 kts | 339° |
| 2026-04-25 15:46 | 16.50601 | 97.74950 | 35953 ft | 429 kts | 339° |
| 2026-04-25 15:46 | 16.56282 | 97.73026 | 35948 ft | 429 kts | 339° |
| 2026-04-25 15:47 | 16.61963 | 97.71091 | 35951 ft | 429 kts | 339° |
| 2026-04-25 15:47 | 16.67640 | 97.69152 | 35951 ft | 429 kts | 339° |
| 2026-04-25 15:48 | 16.73276 | 97.67231 | 35945 ft | 428 kts | 339° |
| 2026-04-25 15:48 | 16.78956 | 97.65294 | 35948 ft | 428 kts | 339° |
| 2026-04-25 15:49 | 16.84635 | 97.63355 | 35949 ft | 428 kts | 339° |
| 2026-04-25 15:49 | 16.90268 | 97.61434 | 35942 ft | 428 kts | 339° |
| 2026-04-25 15:50 | 16.95935 | 97.59504 | 35952 ft | 427 kts | 338° |
| 2026-04-25 15:50 | 17.01596 | 97.57572 | 35942 ft | 427 kts | 338° |
| 2026-04-25 15:51 | 17.06302 | 97.55963 | 35951 ft | 428 kts | 338° |
| 2026-04-25 15:51 | 17.12882 | 97.53710 | 35948 ft | 427 kts | 338° |
| 2026-04-25 15:52 | 17.18530 | 97.51773 | 35948 ft | 427 kts | 338° |
| 2026-04-25 15:52 | 17.24192 | 97.49831 | 35947 ft | 427 kts | 338° |
| 2026-04-25 15:53 | 17.29804 | 97.47903 | 35957 ft | 427 kts | 338° |
| 2026-04-25 15:53 | 17.35454 | 97.45974 | 35966 ft | 427 kts | 338° |
| 2026-04-25 15:54 | 17.41103 | 97.44039 | 35964 ft | 426 kts | 338° |
| 2026-04-25 15:54 | 17.46749 | 97.42098 | 35962 ft | 426 kts | 338° |
| 2026-04-25 15:55 | 17.52347 | 97.40174 | 35974 ft | 426 kts | 338° |
| 2026-04-25 15:55 | 17.57984 | 97.38236 | 35962 ft | 425 kts | 338° |
| 2026-04-25 15:56 | 17.63616 | 97.36292 | 35972 ft | 425 kts | 337° |
| 2026-04-25 15:56 | 17.69241 | 97.34351 | 35972 ft | 425 kts | 337° |
| 2026-04-25 15:57 | 17.74830 | 97.32434 | 35971 ft | 425 kts | 337° |
| 2026-04-25 15:57 | 17.80451 | 97.30496 | 35972 ft | 425 kts | 337° |
| 2026-04-25 15:58 | 17.86078 | 97.28552 | 35963 ft | 425 kts | 337° |
| 2026-04-25 15:58 | 17.91700 | 97.26609 | 35976 ft | 425 kts | 337° |
| 2026-04-25 15:59 | 17.97323 | 97.24666 | 35986 ft | 425 kts | 337° |
| 2026-04-25 15:59 | 18.02907 | 97.22733 | 35989 ft | 424 kts | 337° |
| 2026-04-25 16:00 | 18.05707 | 97.21767 | 35985 ft | 424 kts | 337° |
| 2026-04-25 16:00 | 18.14127 | 97.18864 | 35985 ft | 424 kts | 336° |
| 2026-04-25 16:01 | 18.19732 | 97.16915 | 35979 ft | 423 kts | 337° |
| 2026-04-25 16:01 | 18.25333 | 97.14972 | 35979 ft | 424 kts | 337° |
| 2026-04-25 16:02 | 18.30914 | 97.13034 | 35997 ft | 424 kts | 336° |
| 2026-04-25 16:02 | 18.36527 | 97.11087 | 36005 ft | 424 kts | 336° |
| 2026-04-25 16:03 | 18.42122 | 97.09137 | 36001 ft | 423 kts | 336° |
| 2026-04-25 16:03 | 18.47686 | 97.07204 | 36001 ft | 423 kts | 336° |
| 2026-04-25 16:04 | 18.53276 | 97.05264 | 36003 ft | 423 kts | 336° |
| 2026-04-25 16:04 | 18.58870 | 97.03311 | 36005 ft | 423 kts | 336° |
| 2026-04-25 16:05 | 18.64454 | 97.01364 | 36005 ft | 423 kts | 336° |
| 2026-04-25 16:06 | 18.72849 | 96.98447 | 35990 ft | 423 kts | 336° |
| 2026-04-25 16:06 | 18.78441 | 96.96497 | 35991 ft | 423 kts | 336° |
| 2026-04-25 16:07 | 18.84036 | 96.94545 | 35991 ft | 423 kts | 336° |
| 2026-04-25 16:07 | 18.89584 | 96.92603 | 35991 ft | 423 kts | 336° |
| 2026-04-25 16:08 | 18.95166 | 96.90648 | 35990 ft | 422 kts | 336° |
| 2026-04-25 16:08 | 19.00747 | 96.88689 | 36005 ft | 422 kts | 336° |
| 2026-04-25 16:09 | 19.06328 | 96.86738 | 35997 ft | 421 kts | 336° |
| 2026-04-25 16:09 | 19.11886 | 96.84796 | 35991 ft | 420 kts | 336° |
| 2026-04-25 16:10 | 19.17405 | 96.82862 | 35987 ft | 421 kts | 336° |
| 2026-04-25 16:10 | 19.22967 | 96.80912 | 35976 ft | 421 kts | 336° |
| 2026-04-25 16:11 | 19.28529 | 96.78951 | 35979 ft | 421 kts | 336° |
| 2026-04-25 16:11 | 19.34098 | 96.76992 | 35993 ft | 421 kts | 336° |
| 2026-04-25 16:12 | 19.39651 | 96.75048 | 35992 ft | 420 kts | 335° |
| 2026-04-25 16:12 | 19.45172 | 96.73107 | 36006 ft | 420 kts | 335° |
| 2026-04-25 16:13 | 19.50733 | 96.71152 | 36005 ft | 420 kts | 335° |
| 2026-04-25 16:13 | 19.55693 | 96.69400 | 36006 ft | 419 kts | 335° |
| 2026-04-25 16:14 | 19.61266 | 96.67422 | 35988 ft | 420 kts | 335° |
| 2026-04-25 16:14 | 19.66818 | 96.65461 | 35985 ft | 420 kts | 335° |
| 2026-04-25 16:15 | 19.72363 | 96.63508 | 35997 ft | 419 kts | 335° |
| 2026-04-25 16:15 | 19.77904 | 96.61547 | 35995 ft | 419 kts | 335° |
| 2026-04-25 16:16 | 19.83398 | 96.59600 | 36001 ft | 419 kts | 335° |
| 2026-04-25 16:16 | 19.88933 | 96.57644 | 36001 ft | 419 kts | 335° |
| 2026-04-25 16:17 | 19.94466 | 96.55688 | 35998 ft | 419 kts | 335° |
| 2026-04-25 16:17 | 19.99963 | 96.53741 | 35971 ft | 419 kts | 335° |
| 2026-04-25 16:18 | 20.05499 | 96.51778 | 35983 ft | 418 kts | 335° |
| 2026-04-25 16:18 | 20.11016 | 96.49815 | 35989 ft | 418 kts | 335° |
| 2026-04-25 16:19 | 20.15605 | 96.48182 | 35981 ft | 417 kts | 335° |
| 2026-04-25 16:19 | 20.21122 | 96.46223 | 35978 ft | 417 kts | 335° |
| 2026-04-25 16:20 | 20.30286 | 96.42973 | 35982 ft | 417 kts | 335° |
| 2026-04-25 16:21 | 20.37619 | 96.40358 | 35998 ft | 417 kts | 335° |
| 2026-04-25 16:21 | 20.43124 | 96.38393 | 35939 ft | 416 kts | 335° |
| 2026-04-25 16:21 | 20.45886 | 96.37405 | 35049 ft | 423 kts | 335° |
| 2026-04-25 16:22 | 20.48700 | 96.36396 | 33611 ft | 429 kts | 335° |
| 2026-04-25 16:22 | 20.51567 | 96.35368 | 32533 ft | 437 kts | 336° |
| 2026-04-25 16:22 | 20.54413 | 96.34359 | 32331 ft | 424 kts | 336° |
| 2026-04-25 16:22 | 20.57192 | 96.33377 | 31833 ft | 418 kts | 336° |
| 2026-04-25 16:23 | 20.59909 | 96.32413 | 31295 ft | 415 kts | 336° |
| 2026-04-25 16:23 | 20.62645 | 96.31439 | 30755 ft | 413 kts | 336° |
| 2026-04-25 16:23 | 20.65351 | 96.30471 | 30477 ft | 403 kts | 336° |
| 2026-04-25 16:23 | 20.67972 | 96.29536 | 30360 ft | 391 kts | 336° |
| 2026-04-25 16:24 | 20.70509 | 96.28630 | 30261 ft | 378 kts | 335° |
| 2026-04-25 16:24 | 20.72966 | 96.27763 | 30145 ft | 367 kts | 338° |
| 2026-04-25 16:24 | 20.75465 | 96.27258 | 30000 ft | 363 kts | 346° |
| 2026-04-25 16:24 | 20.77933 | 96.26955 | 29593 ft | 359 kts | 346° |
| 2026-04-25 16:25 | 20.80395 | 96.26660 | 28859 ft | 354 kts | 346° |
| 2026-04-25 16:25 | 20.82044 | 96.26463 | 28343 ft | 352 kts | 346° |
| 2026-04-25 16:25 | 20.85262 | 96.26078 | 27538 ft | 351 kts | 347° |
| 2026-04-25 16:25 | 20.87695 | 96.25783 | 27111 ft | 349 kts | 347° |
| 2026-04-25 16:26 | 20.90097 | 96.25492 | 26573 ft | 345 kts | 347° |
| 2026-04-25 16:26 | 20.92447 | 96.25210 | 25916 ft | 343 kts | 347° |
| 2026-04-25 16:26 | 20.94821 | 96.24926 | 25267 ft | 341 kts | 347° |
| 2026-04-25 16:26 | 20.97176 | 96.24645 | 24627 ft | 339 kts | 347° |
| 2026-04-25 16:27 | 20.99517 | 96.24364 | 23994 ft | 337 kts | 347° |
| 2026-04-25 16:27 | 21.01845 | 96.24083 | 23348 ft | 336 kts | 347° |
| 2026-04-25 16:27 | 21.04161 | 96.23802 | 22623 ft | 334 kts | 348° |
| 2026-04-25 16:27 | 21.06460 | 96.23525 | 21957 ft | 331 kts | 348° |
| 2026-04-25 16:28 | 21.08746 | 96.23251 | 21327 ft | 329 kts | 348° |
| 2026-04-25 16:28 | 21.10984 | 96.22983 | 20713 ft | 326 kts | 349° |
| 2026-04-25 16:28 | 21.13239 | 96.22713 | 20124 ft | 324 kts | 349° |
| 2026-04-25 16:28 | 21.15474 | 96.22445 | 19645 ft | 321 kts | 349° |
| 2026-04-25 16:29 | 21.17707 | 96.22172 | 19225 ft | 323 kts | 349° |
| 2026-04-25 16:29 | 21.19929 | 96.21899 | 18876 ft | 323 kts | 350° |
| 2026-04-25 16:29 | 21.22145 | 96.21628 | 18643 ft | 319 kts | 350° |
| 2026-04-25 16:29 | 21.24351 | 96.21362 | 18309 ft | 318 kts | 351° |
| 2026-04-25 16:30 | 21.26554 | 96.21099 | 17982 ft | 317 kts | 351° |
| 2026-04-25 16:30 | 21.28708 | 96.20841 | 17516 ft | 314 kts | 351° |
| 2026-04-25 16:30 | 21.30874 | 96.20581 | 16929 ft | 312 kts | 351° |
| 2026-04-25 16:30 | 21.33020 | 96.20322 | 16407 ft | 308 kts | 351° |
| 2026-04-25 16:31 | 21.35157 | 96.20062 | 16014 ft | 309 kts | 351° |
| 2026-04-25 16:31 | 21.37293 | 96.19800 | 15660 ft | 310 kts | 351° |
| 2026-04-25 16:31 | 21.39417 | 96.19543 | 15357 ft | 303 kts | 351° |
| 2026-04-25 16:31 | 21.41517 | 96.19290 | 14841 ft | 302 kts | 352° |
| 2026-04-25 16:32 | 21.43609 | 96.19036 | 14449 ft | 304 kts | 352° |
| 2026-04-25 16:32 | 21.45698 | 96.18781 | 14135 ft | 304 kts | 352° |
| 2026-04-25 16:32 | 21.47790 | 96.18527 | 13940 ft | 299 kts | 352° |
| 2026-04-25 16:32 | 21.49829 | 96.18280 | 13488 ft | 297 kts | 352° |
| 2026-04-25 16:33 | 21.51883 | 96.18029 | 12953 ft | 295 kts | 352° |
| 2026-04-25 16:33 | 21.53923 | 96.17779 | 12558 ft | 296 kts | 352° |
| 2026-04-25 16:33 | 21.55958 | 96.17532 | 12246 ft | 295 kts | 352° |
| 2026-04-25 16:33 | 21.57992 | 96.17286 | 11986 ft | 292 kts | 352° |
| 2026-04-25 16:34 | 21.60014 | 96.17043 | 11554 ft | 290 kts | 352° |
| 2026-04-25 16:34 | 21.62008 | 96.16801 | 11088 ft | 285 kts | 352° |
| 2026-04-25 16:34 | 21.63963 | 96.16563 | 10718 ft | 287 kts | 352° |
| 2026-04-25 16:34 | 21.65948 | 96.16321 | 10415 ft | 286 kts | 352° |
| 2026-04-25 16:35 | 21.67932 | 96.16079 | 10093 ft | 285 kts | 352° |
| 2026-04-25 16:35 | 21.69892 | 96.15839 | 9858 ft | 282 kts | 352° |
| 2026-04-25 16:35 | 21.71836 | 96.15572 | 9418 ft | 279 kts | 346° |
| 2026-04-25 16:35 | 21.73654 | 96.14892 | 8856 ft | 275 kts | 330° |
| 2026-04-25 16:36 | 21.75278 | 96.13815 | 8464 ft | 275 kts | 325° |
| 2026-04-25 16:36 | 21.75803 | 96.13456 | 8340 ft | 275 kts | 325° |
| 2026-04-25 16:36 | 21.78489 | 96.11638 | 7727 ft | 274 kts | 326° |
| 2026-04-25 16:36 | 21.80097 | 96.10557 | 7396 ft | 271 kts | 326° |
| 2026-04-25 16:37 | 21.81696 | 96.09482 | 7053 ft | 270 kts | 326° |
| 2026-04-25 16:37 | 21.83295 | 96.08404 | 6665 ft | 270 kts | 326° |
| 2026-04-25 16:37 | 21.84886 | 96.07330 | 6149 ft | 267 kts | 326° |
| 2026-04-25 16:37 | 21.86404 | 96.06303 | 5855 ft | 254 kts | 326° |
| 2026-04-25 16:38 | 21.87897 | 96.05290 | 5528 ft | 252 kts | 326° |
| 2026-04-25 16:38 | 21.89388 | 96.04279 | 5143 ft | 254 kts | 326° |
| 2026-04-25 16:38 | 21.90893 | 96.03248 | 4700 ft | 258 kts | 322° |
| 2026-04-25 16:38 | 21.91991 | 96.01778 | 4182 ft | 256 kts | 284° |
| 2026-04-25 16:39 | 21.92162 | 95.99950 | 3949 ft | 243 kts | 262° |
| 2026-04-25 16:39 | 21.91760 | 95.98208 | 3724 ft | 234 kts | 243° |
| 2026-04-25 16:39 | 21.90920 | 95.96771 | 3638 ft | 221 kts | 226° |
| 2026-04-25 16:39 | 21.89791 | 95.95713 | 3512 ft | 211 kts | 210° |
| 2026-04-25 16:40 | 21.88484 | 95.95059 | 3341 ft | 205 kts | 195° |
| 2026-04-25 16:40 | 21.87084 | 95.94819 | 3131 ft | 203 kts | 181° |
| 2026-04-25 16:40 | 21.85675 | 95.94975 | 2888 ft | 204 kts | 172° |
| 2026-04-25 16:40 | 21.84278 | 95.95224 | 2653 ft | 201 kts | 172° |
| 2026-04-25 16:41 | 21.82917 | 95.95467 | 2387 ft | 194 kts | 172° |
| 2026-04-25 16:41 | 21.82053 | 95.95620 | 2224 ft | 186 kts | 172° |
| 2026-04-25 16:41 | 21.79390 | 95.96094 | 1726 ft | 148 kts | 173° |
| 2026-04-25 16:42 | 21.78394 | 95.96270 | 1540 ft | 142 kts | 173° |
| 2026-04-25 16:42 | 21.77425 | 95.96441 | 1366 ft | 140 kts | 173° |
| 2026-04-25 16:42 | 21.76462 | 95.96611 | 1180 ft | 140 kts | 173° |
| 2026-04-25 16:42 | 21.75506 | 95.96815 | 1021 ft | 140 kts | 171° |
| 2026-04-25 16:43 | 21.74540 | 95.96975 | 826 ft | 141 kts | 173° |
| 2026-04-25 16:43 | 21.73576 | 95.97124 | 629 ft | 142 kts | 170° |
| 2026-04-25 16:43 | 21.72598 | 95.97311 | 431 ft | 143 kts | 170° |
| 2026-04-25 16:43 | 21.71619 | 95.97479 | 298 ft | 138 kts | 171° |
| 2026-04-25 16:44 | 21.70811 | 95.97620 | 288 ft | 93 kts | 171° |
| 2026-04-25 16:44 | 21.70337 | 95.97704 | 295 ft | 48 kts | 171° |
| 2026-04-25 16:44 | 21.70120 | 95.97742 | 293 ft | 29 kts | 171° |
| 2026-04-25 16:44 | 21.69966 | 95.97744 | 292 ft | 17 kts | 223° |
| 2026-04-25 16:45 | 21.69995 | 95.97651 | 294 ft | 10 kts | 320° |
| 2026-04-25 16:45 | 21.70046 | 95.97604 | 295 ft | 9 kts | 320° |
| 2026-04-25 16:45 | 21.70096 | 95.97561 | 294 ft | 12 kts | 323° |
| 2026-04-25 16:45 | 21.70198 | 95.97518 | 293 ft | 18 kts | 350° |
| 2026-04-25 16:46 | 21.70324 | 95.97494 | 294 ft | 17 kts | 347° |
| 2026-04-25 16:46 | 21.70343 | 95.97381 | 293 ft | 18 kts | 261° |
| 2026-04-25 16:46 | 21.70366 | 95.97260 | 295 ft | 18 kts | 332° |
| 2026-04-25 16:46 | 21.70396 | 95.97251 | 294 ft | 9 kts | 348° |
| 2026-04-25 16:47 | 21.70449 | 95.97219 | 292 ft | 4 kts | 264° |
| 2026-04-25 16:47 | 21.70444 | 95.97179 | 293 ft | 5 kts | 263° |
| 2026-04-25 16:47 | 21.70441 | 95.97152 | 293 ft | 0 kts | 262° |